createdAt,value
2017-08-29T00:01:38.635Z,6.63
2017-08-29T00:04:04.898Z,6.77
2017-08-29T00:06:31.191Z,6.13
2017-08-29T00:08:57.470Z,6.00
2017-08-29T00:11:23.740Z,5.50
2017-08-29T00:13:50.005Z,6.10
2017-08-29T00:16:16.282Z,5.53
2017-08-29T00:18:42.530Z,6.70
2017-08-29T00:21:09.515Z,6.13
2017-08-29T00:23:35.806Z,6.00
2017-08-29T00:26:02.063Z,6.00
2017-08-29T00:28:28.342Z,6.43
2017-08-29T00:30:54.626Z,6.37
2017-08-29T00:33:20.875Z,6.00
2017-08-29T00:35:47.196Z,5.27
2017-08-29T00:38:13.523Z,6.13
2017-08-29T00:40:39.875Z,5.77
2017-08-29T00:43:06.311Z,5.53
2017-08-29T00:45:32.691Z,5.33
2017-08-29T00:47:59.882Z,5.80
2017-08-29T00:50:26.132Z,6.17
2017-08-29T00:52:52.439Z,6.00
2017-08-29T00:55:18.698Z,5.70
2017-08-29T00:57:44.983Z,5.30
2017-08-29T01:00:11.261Z,6.23
2017-08-29T01:02:37.518Z,5.63
2017-08-29T01:05:03.767Z,6.10
2017-08-29T01:07:30.051Z,6.60
2017-08-29T01:09:56.347Z,5.87
2017-08-29T01:12:22.591Z,5.47
2017-08-29T01:14:48.900Z,5.50
2017-08-29T01:17:15.183Z,5.23
2017-08-29T01:19:41.431Z,5.47
2017-08-29T01:22:07.708Z,4.63
2017-08-29T01:24:33.991Z,5.20
2017-08-29T01:27:00.235Z,5.10
2017-08-29T01:29:27.357Z,5.60
2017-08-29T01:31:53.598Z,5.53
2017-08-29T01:34:19.858Z,5.90
2017-08-29T01:36:46.138Z,6.10
2017-08-29T01:39:12.423Z,5.37
2017-08-29T01:41:38.774Z,5.53
2017-08-29T01:44:05.161Z,6.00
2017-08-29T01:46:31.386Z,5.60
2017-08-29T01:48:57.761Z,6.23
2017-08-29T01:51:24.086Z,5.60
2017-08-29T01:53:50.342Z,5.80
2017-08-29T01:56:16.587Z,5.83
2017-08-29T01:58:42.879Z,4.93
2017-08-29T02:01:09.159Z,5.23
2017-08-29T02:03:35.410Z,5.20
2017-08-29T02:06:01.736Z,6.50
2017-08-29T02:08:27.967Z,6.83
2017-08-29T02:10:54.219Z,5.23
2017-08-29T02:13:20.499Z,5.37
2017-08-29T02:15:46.752Z,4.50
2017-08-29T02:18:12.978Z,5.47
2017-08-29T02:20:39.255Z,4.97
2017-08-29T02:23:05.495Z,4.07
2017-08-29T02:25:31.727Z,5.27
2017-08-29T02:27:58.018Z,4.63
2017-08-29T02:30:24.242Z,4.40
2017-08-29T02:32:50.470Z,5.30
2017-08-29T02:35:16.726Z,4.90
2017-08-29T02:37:42.948Z,5.90
2017-08-29T02:40:09.186Z,4.53
2017-08-29T02:42:35.980Z,6.00
2017-08-29T02:45:04.180Z,4.80
2017-08-29T02:47:30.424Z,5.07
2017-08-29T02:49:56.694Z,4.80
2017-08-29T02:52:22.954Z,4.47
2017-08-29T02:54:49.198Z,4.80
2017-08-29T02:57:15.464Z,4.40
2017-08-29T02:59:41.709Z,4.60
2017-08-29T03:02:07.978Z,4.83
2017-08-29T03:04:34.248Z,4.77
2017-08-29T03:07:00.480Z,5.57
2017-08-29T03:09:26.743Z,5.10
2017-08-29T03:11:53.024Z,4.63
2017-08-29T03:14:21.355Z,4.83
2017-08-29T03:16:47.655Z,4.63
2017-08-29T03:19:13.910Z,4.57
2017-08-29T03:21:40.180Z,5.20
2017-08-29T03:24:06.405Z,4.10
2017-08-29T03:26:32.680Z,3.83
2017-08-29T03:28:58.913Z,4.90
2017-08-29T03:31:25.146Z,5.77
2017-08-29T03:33:51.426Z,4.70
2017-08-29T03:36:17.666Z,4.70
2017-08-29T03:38:43.894Z,4.93
2017-08-29T03:41:10.183Z,4.50
2017-08-29T03:43:36.512Z,4.97
2017-08-29T03:46:04.594Z,5.00
2017-08-29T03:48:30.866Z,4.63
2017-08-29T03:50:57.112Z,4.60
2017-08-29T03:53:23.356Z,4.13
2017-08-29T03:55:49.611Z,5.50
2017-08-29T03:58:15.889Z,5.20
2017-08-29T04:00:42.131Z,4.20
2017-08-29T04:03:08.497Z,4.23
2017-08-29T04:05:34.728Z,4.50
2017-08-29T04:08:00.975Z,4.70
2017-08-29T04:10:27.254Z,4.77
2017-08-29T04:12:53.506Z,4.47
2017-08-29T04:15:19.754Z,4.10
2017-08-29T04:17:45.995Z,4.40
2017-08-29T04:20:12.234Z,4.50
2017-08-29T04:22:38.461Z,4.37
2017-08-29T04:25:04.842Z,4.83
2017-08-29T04:27:31.625Z,4.83
2017-08-29T04:29:57.853Z,5.00
2017-08-29T04:32:24.098Z,4.77
2017-08-29T04:34:50.370Z,10.00
2017-08-29T04:37:16.610Z,8.13
2017-08-29T04:39:43.013Z,6.00
2017-08-29T04:42:09.302Z,4.60
2017-08-29T04:44:35.631Z,5.87
2017-08-29T04:47:02.212Z,7.70
2017-08-29T04:49:28.458Z,6.27
2017-08-29T04:51:54.987Z,6.50
2017-08-29T04:54:21.650Z,5.47
2017-08-29T04:56:48.032Z,5.80
2017-08-29T04:59:14.289Z,5.37
2017-08-29T05:01:40.533Z,5.30
2017-08-29T05:04:06.790Z,5.00
2017-08-29T05:06:33.123Z,6.27
2017-08-29T05:08:59.391Z,5.70
2017-08-29T05:11:25.638Z,11.33
2017-08-29T05:13:51.866Z,7.97
2017-08-29T05:16:18.190Z,5.80
2017-08-29T05:18:44.430Z,5.60
2017-08-29T05:21:10.662Z,5.00
2017-08-29T05:23:36.932Z,7.47
2017-08-29T05:26:03.201Z,9.17
2017-08-29T05:28:29.441Z,10.23
2017-08-29T05:30:55.702Z,5.40
2017-08-29T05:33:21.932Z,4.63
2017-08-29T05:35:48.178Z,7.50
2017-08-29T05:38:14.451Z,5.90
2017-08-29T05:40:40.713Z,4.47
2017-08-29T05:43:06.959Z,5.10
2017-08-29T05:45:33.391Z,4.77
2017-08-29T05:48:00.023Z,4.63
2017-08-29T05:50:26.260Z,4.63
2017-08-29T05:52:52.566Z,5.00
2017-08-29T05:55:19.650Z,6.00
2017-08-29T05:57:45.878Z,4.80
2017-08-29T06:00:12.166Z,5.60
2017-08-29T06:02:38.394Z,5.57
2017-08-29T06:05:04.644Z,5.83
2017-08-29T06:07:30.906Z,6.10
2017-08-29T06:09:57.138Z,5.77
2017-08-29T06:12:23.398Z,5.70
2017-08-29T06:14:49.675Z,5.13
2017-08-29T06:17:15.910Z,6.43
2017-08-29T06:19:42.146Z,6.13
2017-08-29T06:22:08.447Z,6.53
2017-08-29T06:24:34.678Z,6.90
2017-08-29T06:27:00.929Z,8.10
2017-08-29T06:29:27.222Z,7.63
2017-08-29T06:31:53.466Z,7.43
2017-08-29T06:34:19.707Z,6.87
2017-08-29T06:36:45.967Z,7.43
2017-08-29T06:39:12.191Z,8.73
2017-08-29T06:41:38.635Z,7.17
2017-08-29T06:44:05.051Z,8.00
2017-08-29T06:46:31.406Z,8.10
2017-08-29T06:48:57.943Z,7.57
2017-08-29T06:51:24.220Z,7.23
2017-08-29T06:53:50.554Z,7.53
2017-08-29T06:56:16.784Z,6.73
2017-08-29T06:58:43.034Z,6.20
2017-08-29T07:01:09.283Z,6.53
2017-08-29T07:03:35.514Z,5.53
2017-08-29T07:06:01.769Z,6.03
2017-08-29T07:08:28.002Z,6.00
2017-08-29T07:10:54.238Z,6.47
2017-08-29T07:13:20.522Z,5.70
2017-08-29T07:15:47.517Z,5.80
2017-08-29T07:18:13.762Z,6.13
2017-08-29T07:20:40.155Z,5.67
2017-08-29T07:23:06.477Z,6.20
2017-08-29T07:25:32.778Z,5.57
2017-08-29T07:27:59.052Z,6.27
2017-08-29T07:30:25.296Z,6.37
2017-08-29T07:32:51.527Z,6.60
2017-08-29T07:35:17.762Z,5.40
2017-08-29T07:37:43.983Z,5.70
2017-08-29T07:40:10.254Z,6.40
2017-08-29T07:42:36.652Z,6.10
2017-08-29T07:45:03.048Z,7.67
2017-08-29T07:47:29.614Z,5.97
2017-08-29T07:49:56.305Z,6.90
2017-08-29T07:52:22.562Z,6.93
2017-08-29T07:54:49.066Z,6.47
2017-08-29T07:57:15.339Z,6.37
2017-08-29T07:59:41.592Z,8.10
2017-08-29T08:02:07.822Z,7.33
2017-08-29T08:04:34.110Z,7.30
2017-08-29T08:07:00.359Z,7.07
2017-08-29T08:09:26.614Z,6.43
2017-08-29T08:11:52.870Z,8.40
2017-08-29T08:14:19.110Z,7.10
2017-08-29T08:16:45.370Z,7.60
2017-08-29T08:19:11.663Z,5.93
2017-08-29T08:21:37.896Z,7.03
2017-08-29T08:24:04.148Z,8.10
2017-08-29T08:26:30.432Z,7.67
2017-08-29T08:28:56.674Z,7.00
2017-08-29T08:31:22.901Z,7.37
2017-08-29T08:33:49.170Z,8.00
2017-08-29T08:36:15.426Z,6.70
2017-08-29T08:38:41.676Z,8.50
2017-08-29T08:41:07.943Z,6.47
2017-08-29T08:43:34.178Z,7.20
2017-08-29T08:46:00.406Z,7.10
2017-08-29T08:48:26.745Z,7.20
2017-08-29T08:50:53.086Z,6.70
2017-08-29T08:53:19.314Z,7.80
2017-08-29T08:55:45.624Z,7.37
2017-08-29T08:58:11.867Z,7.70
2017-08-29T09:00:38.098Z,6.07
2017-08-29T09:03:04.362Z,7.73
2017-08-29T09:05:30.641Z,8.53
2017-08-29T09:07:56.883Z,7.50
2017-08-29T09:10:23.139Z,7.60
2017-08-29T09:12:49.391Z,7.60
2017-08-29T09:15:15.642Z,7.93
2017-08-29T09:17:41.907Z,7.00
2017-08-29T09:20:08.194Z,8.13
2017-08-29T09:22:34.470Z,7.93
2017-08-29T09:25:00.722Z,8.13
2017-08-29T09:27:26.950Z,7.23
2017-08-29T09:29:53.197Z,7.73
2017-08-29T09:32:19.483Z,7.67
2017-08-29T09:34:45.734Z,8.83
2017-08-29T09:37:11.970Z,8.60
2017-08-29T09:39:38.242Z,8.10
2017-08-29T09:42:04.515Z,7.03
2017-08-29T09:44:30.758Z,7.97
2017-08-29T09:46:57.002Z,7.20
2017-08-29T09:49:23.342Z,8.23
2017-08-29T09:51:50.038Z,7.93
2017-08-29T09:54:16.280Z,6.77
2017-08-29T09:56:42.514Z,7.40
2017-08-29T09:59:08.746Z,8.47
2017-08-29T10:01:34.983Z,8.10
2017-08-29T10:04:01.218Z,8.07
2017-08-29T10:06:27.468Z,7.37
2017-08-29T10:08:53.768Z,7.70
2017-08-29T10:11:20.043Z,8.00
2017-08-29T10:13:46.285Z,7.23
2017-08-29T10:16:12.560Z,11.67
2017-08-29T10:18:38.794Z,8.03
2017-08-29T10:21:05.029Z,8.10
2017-08-29T10:23:31.298Z,8.30
2017-08-29T10:25:57.571Z,7.10
2017-08-29T10:28:23.789Z,7.93
2017-08-29T10:30:50.046Z,6.77
2017-08-29T10:33:16.298Z,8.70
2017-08-29T10:35:42.546Z,7.17
2017-08-29T10:38:08.798Z,7.70
2017-08-29T10:40:35.029Z,7.13
2017-08-29T10:43:01.293Z,7.70
2017-08-29T10:45:27.555Z,7.10
2017-08-29T10:47:53.822Z,7.43
2017-08-29T10:50:20.152Z,6.67
2017-08-29T10:52:46.648Z,7.17
2017-08-29T10:55:13.251Z,6.93
2017-08-29T10:57:39.486Z,6.07
2017-08-29T11:00:05.782Z,7.07
2017-08-29T11:02:32.008Z,7.70
2017-08-29T11:04:58.264Z,8.23
2017-08-29T11:07:24.522Z,6.67
2017-08-29T11:09:50.780Z,6.90
2017-08-29T11:12:17.786Z,7.00
2017-08-29T11:14:44.042Z,7.50
2017-08-29T11:17:10.273Z,7.20
2017-08-29T11:19:36.505Z,7.33
2017-08-29T11:22:02.959Z,8.00
2017-08-29T11:24:29.229Z,7.87
2017-08-29T11:26:55.482Z,7.13
2017-08-29T11:29:22.634Z,7.60
2017-08-29T11:31:48.882Z,8.03
2017-08-29T11:34:15.129Z,8.10
2017-08-29T11:36:41.519Z,8.20
2017-08-29T11:39:07.785Z,8.43
2017-08-29T11:41:34.097Z,9.00
2017-08-29T11:44:00.369Z,7.93
2017-08-29T11:46:26.599Z,8.27
2017-08-29T11:48:52.861Z,8.97
2017-08-29T11:51:19.455Z,8.63
2017-08-29T11:53:45.961Z,9.20
2017-08-29T11:56:12.222Z,8.87
2017-08-29T11:58:38.575Z,9.30
2017-08-29T12:01:04.823Z,8.93
2017-08-29T12:03:31.077Z,11.10
2017-08-29T12:05:57.326Z,12.10
2017-08-29T12:08:23.587Z,11.50
2017-08-29T12:10:49.849Z,10.60
2017-08-29T12:13:16.098Z,13.27
2017-08-29T12:15:42.373Z,11.00
2017-08-29T12:18:08.624Z,9.77
2017-08-29T12:20:37.578Z,11.03
2017-08-29T12:23:03.877Z,11.03
2017-08-29T12:25:30.114Z,10.10
2017-08-29T12:27:56.375Z,11.00
2017-08-29T12:30:22.605Z,9.47
2017-08-29T12:32:48.851Z,11.00
2017-08-29T12:35:15.126Z,10.50
2017-08-29T12:37:41.363Z,11.40
2017-08-29T12:40:07.592Z,10.03
2017-08-29T12:42:33.822Z,10.07
2017-08-29T12:45:00.089Z,10.57
2017-08-29T12:47:26.326Z,10.60
2017-08-29T12:49:52.588Z,12.93
2017-08-29T12:52:18.944Z,11.23
2017-08-29T12:54:45.377Z,11.40
2017-08-29T12:57:11.626Z,10.83
2017-08-29T12:59:37.895Z,13.10
2017-08-29T13:02:04.143Z,12.07
2017-08-29T13:04:30.406Z,12.63
2017-08-29T13:06:56.669Z,10.53
2017-08-29T13:09:22.955Z,13.57
2017-08-29T13:11:49.250Z,12.70
2017-08-29T13:14:15.514Z,11.60
2017-08-29T13:16:41.785Z,10.63
2017-08-29T13:19:08.089Z,13.10
2017-08-29T13:21:34.430Z,12.00
2017-08-29T13:24:00.668Z,12.50
2017-08-29T13:26:26.915Z,12.97
2017-08-29T13:28:53.191Z,13.80
2017-08-29T13:31:19.450Z,10.97
2017-08-29T13:33:45.706Z,13.40
2017-08-29T13:36:11.943Z,12.97
2017-08-29T13:38:38.194Z,12.87
2017-08-29T13:41:04.444Z,14.80
2017-08-29T13:43:30.673Z,14.77
2017-08-29T13:45:56.962Z,14.00
2017-08-29T13:48:23.225Z,12.73
2017-08-29T13:50:49.453Z,15.50
2017-08-29T13:53:15.788Z,14.97
2017-08-29T13:55:42.254Z,16.57
2017-08-29T13:58:15.625Z,16.47
2017-08-29T14:00:41.894Z,15.43
2017-08-29T14:03:08.129Z,16.73
2017-08-29T14:05:34.358Z,17.07
2017-08-29T14:08:00.618Z,18.00
2017-08-29T14:10:26.874Z,17.43
2017-08-29T14:12:53.105Z,17.93
2017-08-29T14:15:19.358Z,17.43
2017-08-29T14:17:45.602Z,18.47
2017-08-29T14:20:11.934Z,20.73
2017-08-29T14:22:38.207Z,22.50
2017-08-29T14:25:04.434Z,21.00
2017-08-29T14:27:30.680Z,19.10
2017-08-29T14:29:56.943Z,20.77
2017-08-29T14:32:23.307Z,19.20
2017-08-29T14:34:49.587Z,20.50
2017-08-29T14:37:15.854Z,19.40
2017-08-29T14:39:42.144Z,19.40
2017-08-29T14:42:08.404Z,19.50
2017-08-29T14:44:34.694Z,19.10
2017-08-29T14:47:13.158Z,18.97
2017-08-29T14:49:39.416Z,18.13
2017-08-29T14:52:05.660Z,18.07
2017-08-29T14:54:32.058Z,18.30
2017-08-29T14:56:58.517Z,18.33
2017-08-29T15:01:55.390Z,24.90
2017-08-29T15:04:21.622Z,19.37
2017-08-29T15:06:47.848Z,22.67
2017-08-29T15:09:14.065Z,19.20
2017-08-29T15:11:40.325Z,20.07
2017-08-29T15:14:06.548Z,20.87
2017-08-29T15:16:32.915Z,20.63
2017-08-29T15:18:59.173Z,20.90
2017-08-29T15:21:25.550Z,19.83
2017-08-29T15:23:51.779Z,22.30
2017-08-29T15:26:18.025Z,21.10
2017-08-29T15:28:44.233Z,19.33
2017-08-29T15:31:10.466Z,21.80
2017-08-29T15:33:36.810Z,21.40
2017-08-29T15:36:03.823Z,25.00
2017-08-29T15:38:30.703Z,23.37
2017-08-29T15:40:56.942Z,30.17
2017-08-29T15:43:23.181Z,21.57
2017-08-29T15:45:49.434Z,26.60
2017-08-29T15:48:15.701Z,22.87
2017-08-29T15:50:41.922Z,23.00
2017-08-29T15:53:08.158Z,28.77
2017-08-29T15:55:34.498Z,23.93
2017-08-29T15:58:00.836Z,21.13
2017-08-29T16:00:27.060Z,20.60
2017-08-29T16:02:53.293Z,25.80
2017-08-29T16:05:19.578Z,23.30
2017-08-29T16:07:45.814Z,22.27
2017-08-29T16:10:12.065Z,18.97
2017-08-29T16:12:38.301Z,25.03
2017-08-29T16:15:05.000Z,23.53
2017-08-29T16:17:31.243Z,25.50
2017-08-29T16:19:57.486Z,20.27
2017-08-29T16:22:23.718Z,21.97
2017-08-29T16:24:49.974Z,22.87
2017-08-29T16:27:16.203Z,19.60
2017-08-29T16:29:42.433Z,19.23
2017-08-29T16:32:08.685Z,20.00
2017-08-29T16:34:34.897Z,22.70
2017-08-29T16:37:01.138Z,20.37
2017-08-29T16:39:27.386Z,21.37
2017-08-29T16:41:53.635Z,24.60
2017-08-29T16:44:19.869Z,22.93
2017-08-29T16:46:46.118Z,27.00
2017-08-29T16:49:12.864Z,21.87
2017-08-29T16:51:39.097Z,20.10
2017-08-29T16:54:05.346Z,21.13
2017-08-29T16:56:31.782Z,24.30
2017-08-29T16:58:58.229Z,25.97
2017-08-29T17:01:24.540Z,23.53
2017-08-29T17:03:50.762Z,27.30
2017-08-29T17:06:16.982Z,21.40
2017-08-29T17:08:43.250Z,22.60
2017-08-29T17:11:09.475Z,22.87
2017-08-29T17:13:35.681Z,22.33
2017-08-29T17:16:01.934Z,23.20
2017-08-29T17:18:29.033Z,21.27
2017-08-29T17:20:55.273Z,22.67
2017-08-29T17:23:21.509Z,22.53
2017-08-29T17:25:47.749Z,21.77
2017-08-29T17:28:13.989Z,20.60
2017-08-29T17:30:40.236Z,23.23
2017-08-29T17:33:06.449Z,22.27
2017-08-29T17:35:32.766Z,23.30
2017-08-29T17:37:59.038Z,31.70
2017-08-29T17:40:25.267Z,28.53
2017-08-29T17:42:51.497Z,33.43
2017-08-29T17:45:17.750Z,33.43
2017-08-29T17:47:43.994Z,32.63
2017-08-29T17:50:11.270Z,25.93
2017-08-29T17:52:44.377Z,24.70
2017-08-29T17:55:10.638Z,32.50
2017-08-29T17:57:37.046Z,32.20
2017-08-29T18:00:03.389Z,39.30
2017-08-29T18:02:29.626Z,28.70
2017-08-29T18:04:55.889Z,27.70
2017-08-29T18:07:22.169Z,44.07
2017-08-29T18:09:48.388Z,32.90
2017-08-29T18:12:14.620Z,33.80
2017-08-29T18:14:40.894Z,27.93
2017-08-29T18:17:07.125Z,26.60
2017-08-29T18:19:33.334Z,25.97
2017-08-29T18:21:59.611Z,30.80
2017-08-29T18:24:25.845Z,30.10
2017-08-29T18:26:52.078Z,28.87
2017-08-29T18:29:18.337Z,30.60
2017-08-29T18:31:44.579Z,26.40
2017-08-29T18:34:11.590Z,24.67
2017-08-29T18:36:37.894Z,25.37
2017-08-29T18:39:04.965Z,24.67
2017-08-29T18:41:31.194Z,26.40
2017-08-29T18:43:57.462Z,28.07
2017-08-29T18:46:23.845Z,27.10
2017-08-29T18:48:50.089Z,30.77
2017-08-29T18:51:16.386Z,31.13
2017-08-29T18:53:42.635Z,30.57
2017-08-29T18:56:09.338Z,30.50
2017-08-29T18:58:36.501Z,40.50
2017-08-29T19:01:03.222Z,32.37
2017-08-29T19:03:29.501Z,34.83
2017-08-29T19:05:55.740Z,33.50
2017-08-29T19:08:21.963Z,33.07
2017-08-29T19:10:48.197Z,31.57
2017-08-29T19:13:14.485Z,32.57
2017-08-29T19:15:40.727Z,33.13
2017-08-29T19:18:06.955Z,30.57
2017-08-29T19:20:33.438Z,28.57
2017-08-29T19:22:59.659Z,31.47
2017-08-29T19:25:25.910Z,31.53
2017-08-29T19:27:52.251Z,31.13
2017-08-29T19:30:18.755Z,30.77
2017-08-29T19:32:45.010Z,31.03
2017-08-29T19:35:11.288Z,29.47
2017-08-29T19:37:37.530Z,30.57
2017-08-29T19:40:03.789Z,32.13
2017-08-29T19:42:30.044Z,31.37
2017-08-29T19:44:56.270Z,31.20
2017-08-29T19:47:22.491Z,30.50
2017-08-29T19:49:48.834Z,30.73
2017-08-29T19:52:15.113Z,29.90
2017-08-29T19:54:41.377Z,31.20
2017-08-29T19:57:07.630Z,33.20
2017-08-29T19:59:33.955Z,32.10
2017-08-29T20:02:00.538Z,32.57
2017-08-29T20:04:26.785Z,32.70
2017-08-29T20:06:53.005Z,32.13
2017-08-29T20:09:19.233Z,31.80
2017-08-29T20:11:45.471Z,31.87
2017-08-29T20:14:11.714Z,31.40
2017-08-29T20:16:44.879Z,32.53
2017-08-29T20:19:11.137Z,33.93
2017-08-29T20:21:37.361Z,31.27
2017-08-29T20:24:03.653Z,34.47
2017-08-29T20:26:29.910Z,32.20
2017-08-29T20:28:57.162Z,34.40
2017-08-29T20:31:23.406Z,47.63
2017-08-29T20:33:49.666Z,91.53
2017-08-29T20:36:15.878Z,104.43
2017-08-29T20:38:42.121Z,57.40
2017-08-29T20:41:08.574Z,51.50
2017-08-29T20:43:34.890Z,42.63
2017-08-29T20:46:01.147Z,40.10
2017-08-29T20:48:27.389Z,35.30
2017-08-29T20:50:53.613Z,35.83
2017-08-29T20:53:19.830Z,33.23
2017-08-29T20:55:46.087Z,35.93
2017-08-29T20:58:12.330Z,57.43
2017-08-29T21:00:38.688Z,75.27
2017-08-29T21:03:05.226Z,61.40
2017-08-29T21:05:31.457Z,48.00
2017-08-29T21:07:57.685Z,37.70
2017-08-29T21:10:23.917Z,35.73
2017-08-29T21:12:50.159Z,33.40
2017-08-29T21:15:17.578Z,34.63
2017-08-29T21:17:43.821Z,37.40
2017-08-29T21:20:10.065Z,35.20
2017-08-29T21:22:36.438Z,37.77
2017-08-29T21:25:02.763Z,41.97
2017-08-29T21:27:28.994Z,38.50
2017-08-29T21:29:55.215Z,38.90
2017-08-29T21:32:21.457Z,36.70
2017-08-29T21:34:47.691Z,35.70
2017-08-29T21:37:13.917Z,35.97
2017-08-29T21:39:40.153Z,37.00
2017-08-29T21:42:06.386Z,34.80
2017-08-29T21:44:32.682Z,35.37
2017-08-29T21:46:58.921Z,37.10
2017-08-29T21:49:25.215Z,37.07
2017-08-29T21:51:51.510Z,39.43
2017-08-29T21:54:17.758Z,38.47
2017-08-29T21:56:43.978Z,38.27
2017-08-29T21:59:10.195Z,38.73
2017-08-29T22:01:36.517Z,40.40
2017-08-29T22:04:04.130Z,39.97
2017-08-29T22:06:30.353Z,39.33
2017-08-29T22:08:56.691Z,39.37
2017-08-29T22:11:22.965Z,38.63
2017-08-29T22:13:49.197Z,39.73
2017-08-29T22:16:15.453Z,37.33
2017-08-29T22:18:41.668Z,41.23
2017-08-29T22:21:07.935Z,38.47
2017-08-29T22:23:34.173Z,39.93
2017-08-29T22:26:00.389Z,38.50
2017-08-29T22:28:26.613Z,38.57
2017-08-29T22:30:53.008Z,39.73
2017-08-29T22:33:20.217Z,39.20
2017-08-29T22:35:46.440Z,40.40
2017-08-29T22:38:12.706Z,38.33
2017-08-29T22:40:38.921Z,37.80
2017-08-29T22:43:05.134Z,41.00
2017-08-29T22:45:31.397Z,38.70
2017-08-29T22:47:57.624Z,38.40
2017-08-29T22:50:23.856Z,38.00
2017-08-29T22:52:50.086Z,39.30
2017-08-29T22:55:16.307Z,39.07
2017-08-29T22:57:42.533Z,37.80
2017-08-29T23:00:08.762Z,36.83
2017-08-29T23:02:35.282Z,39.23
2017-08-29T23:05:01.766Z,38.07
2017-08-29T23:07:28.013Z,38.80
2017-08-29T23:09:54.257Z,40.00
2017-08-29T23:12:20.474Z,40.40
2017-08-29T23:14:46.746Z,38.67
2017-08-29T23:17:12.969Z,38.97
2017-08-29T23:19:39.196Z,37.80
2017-08-29T23:22:05.462Z,40.50
2017-08-29T23:24:31.694Z,37.90
2017-08-29T23:26:57.949Z,36.73
2017-08-29T23:29:24.206Z,38.67
2017-08-29T23:31:50.414Z,38.37
2017-08-29T23:34:16.633Z,39.00
2017-08-29T23:36:42.889Z,37.53
2017-08-29T23:39:09.121Z,36.80
2017-08-29T23:41:35.350Z,36.30
2017-08-29T23:44:01.632Z,37.77
2017-08-29T23:46:27.846Z,39.47
2017-08-29T23:48:54.063Z,38.50
2017-08-29T23:51:20.317Z,39.20
2017-08-29T23:53:46.585Z,39.20
2017-08-29T23:56:13.823Z,38.23
2017-08-29T23:58:40.149Z,39.67
